createdAt,value
2023-06-29T00:01:33.567Z,4.65
2023-06-29T00:04:40.869Z,4.53
2023-06-29T00:07:46.217Z,3.95
2023-06-29T00:10:52.485Z,4.15
2023-06-29T00:13:59.155Z,3.95
2023-06-29T00:17:07.471Z,3.77
2023-06-29T00:20:14.628Z,3.80
2023-06-29T00:23:21.930Z,3.90
2023-06-29T00:26:27.285Z,3.62
2023-06-29T00:29:33.455Z,3.33
2023-06-29T00:32:39.632Z,4.00
2023-06-29T00:35:47.004Z,3.37
2023-06-29T00:38:55.843Z,3.87
2023-06-29T00:42:09.570Z,4.45
2023-06-29T00:45:16.316Z,3.98
2023-06-29T00:48:22.244Z,3.52
2023-06-29T00:51:29.498Z,3.87
2023-06-29T00:54:35.880Z,3.65
2023-06-29T00:57:42.663Z,4.10
2023-06-29T01:00:52.292Z,3.58
2023-06-29T01:04:01.001Z,3.85
2023-06-29T01:07:19.225Z,3.90
2023-06-29T01:10:25.674Z,4.00
2023-06-29T01:13:34.997Z,4.03
2023-06-29T01:16:41.616Z,4.05
2023-06-29T01:19:49.130Z,3.98
2023-06-29T01:23:07.289Z,3.92
2023-06-29T01:26:13.362Z,4.20
2023-06-29T01:29:21.650Z,3.98
2023-06-29T01:32:26.756Z,4.20
2023-06-29T01:35:32.857Z,3.98
2023-06-29T01:38:47.020Z,4.40
2023-06-29T01:41:56.651Z,4.08
2023-06-29T01:45:03.606Z,4.67
2023-06-29T01:48:11.568Z,4.22
2023-06-29T01:51:20.468Z,4.12
2023-06-29T01:54:26.206Z,4.58
2023-06-29T01:57:33.503Z,4.92
2023-06-29T02:00:39.562Z,4.65
2023-06-29T02:03:46.660Z,4.15
2023-06-29T02:06:52.216Z,4.35
2023-06-29T02:09:59.607Z,4.60
2023-06-29T02:13:05.074Z,4.80
2023-06-29T02:16:12.186Z,4.90
2023-06-29T02:19:19.017Z,4.65
2023-06-29T02:22:26.211Z,5.85
2023-06-29T02:25:32.680Z,5.10
2023-06-29T02:28:40.380Z,4.80
2023-06-29T02:31:47.296Z,5.08
2023-06-29T02:34:55.575Z,5.15
2023-06-29T02:38:02.023Z,4.87
2023-06-29T02:41:07.062Z,4.95
2023-06-29T02:44:13.931Z,5.30
2023-06-29T02:47:23.457Z,5.12
2023-06-29T02:50:29.852Z,4.85
2023-06-29T02:53:35.681Z,5.30
2023-06-29T02:56:41.552Z,5.20
2023-06-29T02:59:48.162Z,5.42
2023-06-29T03:02:54.833Z,5.03
2023-06-29T03:06:02.841Z,5.78
2023-06-29T03:09:11.163Z,5.60
2023-06-29T03:12:18.442Z,5.95
2023-06-29T03:15:25.126Z,5.50
2023-06-29T03:18:31.848Z,5.30
2023-06-29T03:21:37.451Z,6.03
2023-06-29T03:24:44.539Z,7.03
2023-06-29T03:27:51.292Z,5.72
2023-06-29T03:30:59.588Z,6.60
2023-06-29T03:34:05.791Z,6.20
2023-06-29T03:37:11.114Z,6.37
2023-06-29T03:40:18.003Z,5.83
2023-06-29T03:43:23.498Z,5.72
2023-06-29T03:46:29.024Z,5.80
2023-06-29T03:49:35.275Z,5.92
2023-06-29T03:52:42.657Z,5.28
2023-06-29T03:55:50.095Z,6.50
2023-06-29T03:58:56.228Z,5.20
2023-06-29T04:02:03.360Z,6.28
2023-06-29T04:05:10.823Z,5.85
2023-06-29T04:08:18.303Z,5.33
2023-06-29T04:11:25.144Z,5.20
2023-06-29T04:14:30.479Z,5.50
2023-06-29T04:17:35.369Z,5.70
2023-06-29T04:20:41.496Z,5.25
2023-06-29T04:23:48.644Z,5.62
2023-06-29T04:26:55.783Z,5.45
2023-06-29T04:30:01.870Z,5.28
2023-06-29T04:33:09.123Z,5.28
2023-06-29T04:36:14.545Z,4.97
2023-06-29T04:39:20.335Z,4.92
2023-06-29T04:42:26.738Z,5.30
2023-06-29T04:45:33.221Z,4.83
2023-06-29T04:48:41.055Z,4.75
2023-06-29T04:51:46.242Z,6.08
2023-06-29T04:54:51.153Z,4.65
2023-06-29T04:57:57.288Z,4.85
2023-06-29T05:01:04.502Z,4.28
2023-06-29T05:04:10.679Z,4.15
2023-06-29T05:07:16.701Z,4.20
2023-06-29T05:10:22.452Z,6.00
2023-06-29T05:13:28.989Z,3.80
2023-06-29T05:16:34.920Z,3.47
2023-06-29T05:19:42.627Z,3.83
2023-06-29T05:22:48.783Z,3.90
2023-06-29T05:25:55.026Z,4.30
2023-06-29T05:29:05.981Z,3.77
2023-06-29T05:32:11.992Z,3.52
2023-06-29T05:35:20.905Z,3.80
2023-06-29T05:38:29.891Z,3.80
2023-06-29T05:41:38.149Z,4.83
2023-06-29T05:44:45.641Z,3.62
2023-06-29T05:47:51.855Z,3.30
2023-06-29T05:50:59.700Z,3.30
2023-06-29T05:54:06.195Z,3.83
2023-06-29T05:57:14.211Z,3.15
2023-06-29T06:00:21.994Z,3.10
2023-06-29T06:03:30.101Z,3.67
2023-06-29T06:06:39.126Z,4.30
2023-06-29T06:09:44.177Z,2.90
2023-06-29T06:12:50.865Z,3.08
2023-06-29T06:15:57.635Z,3.15
2023-06-29T06:19:03.383Z,3.12
2023-06-29T06:22:08.733Z,2.58
2023-06-29T06:25:14.203Z,2.90
2023-06-29T06:28:18.691Z,2.50
2023-06-29T06:31:33.507Z,2.52
2023-06-29T06:34:35.843Z,2.45
2023-06-29T06:37:42.130Z,2.12
2023-06-29T06:40:47.675Z,2.00
2023-06-29T06:43:55.713Z,1.62
2023-06-29T06:47:00.713Z,2.05
2023-06-29T06:50:07.332Z,2.00
2023-06-29T06:53:12.801Z,2.60
2023-06-29T06:56:21.301Z,2.35
2023-06-29T06:59:27.649Z,3.50
2023-06-29T07:02:33.490Z,1.87
2023-06-29T07:05:39.470Z,1.72
2023-06-29T07:08:46.643Z,2.02
2023-06-29T07:11:54.585Z,1.72
2023-06-29T07:15:00.356Z,1.77
2023-06-29T07:18:09.356Z,2.25
2023-06-29T07:21:17.752Z,2.00
2023-06-29T07:24:22.095Z,1.82
2023-06-29T07:27:27.500Z,1.67
2023-06-29T07:30:32.982Z,2.12
2023-06-29T07:33:38.851Z,1.85
2023-06-29T07:36:47.428Z,1.95
2023-06-29T07:39:53.385Z,1.80
2023-06-29T07:42:59.837Z,1.80
2023-06-29T07:46:07.173Z,1.52
2023-06-29T07:49:13.204Z,1.80
2023-06-29T07:52:19.505Z,1.50
2023-06-29T07:55:24.806Z,1.32
2023-06-29T08:01:40.905Z,1.50
2023-06-29T08:07:58.834Z,1.70
2023-06-29T08:11:07.095Z,1.25
2023-06-29T08:14:15.123Z,5.42
2023-06-29T08:17:20.728Z,1.42
2023-06-29T08:20:27.857Z,1.55
2023-06-29T08:23:36.126Z,1.40
2023-06-29T08:26:42.684Z,1.57
2023-06-29T08:29:48.619Z,1.30
2023-06-29T08:32:56.606Z,1.37
2023-06-29T08:36:03.698Z,1.40
2023-06-29T08:39:10.741Z,1.40
2023-06-29T08:42:17.300Z,1.62
2023-06-29T08:45:24.861Z,1.35
2023-06-29T08:48:32.208Z,1.40
2023-06-29T08:51:40.383Z,1.50
2023-06-29T08:54:48.357Z,1.50
2023-06-29T08:57:54.390Z,1.30
2023-06-29T09:01:04.289Z,1.45
2023-06-29T09:04:10.460Z,1.25
2023-06-29T09:07:16.409Z,1.37
2023-06-29T09:10:23.417Z,1.42
2023-06-29T09:13:30.988Z,1.20
2023-06-29T09:16:39.081Z,1.07
2023-06-29T09:19:43.867Z,1.57
2023-06-29T09:22:49.929Z,1.12
2023-06-29T09:25:56.216Z,1.42
2023-06-29T09:29:03.111Z,1.22
2023-06-29T09:32:17.359Z,1.40
2023-06-29T09:35:24.074Z,1.40
2023-06-29T09:38:32.609Z,1.42
2023-06-29T09:41:38.434Z,1.25
2023-06-29T09:44:44.735Z,1.20
2023-06-29T09:51:07.120Z,1.02
2023-06-29T09:54:17.652Z,1.32
2023-06-29T09:57:23.752Z,1.30
2023-06-29T10:00:30.810Z,1.37
2023-06-29T10:03:39.632Z,1.30
2023-06-29T10:06:50.004Z,1.25
2023-06-29T10:09:59.657Z,1.15
2023-06-29T10:13:09.301Z,1.12
2023-06-29T10:16:15.577Z,1.20
2023-06-29T10:19:37.803Z,1.47
2023-06-29T10:22:44.386Z,1.20
2023-06-29T10:25:52.259Z,1.00
2023-06-29T10:28:58.653Z,1.10
2023-06-29T10:32:05.219Z,1.20
2023-06-29T10:35:20.526Z,1.40
2023-06-29T10:38:28.905Z,1.10
2023-06-29T10:41:44.278Z,1.62
2023-06-29T10:44:53.035Z,4.65
2023-06-29T10:48:18.168Z,1.10
2023-06-29T10:51:24.706Z,1.00
2023-06-29T10:54:32.149Z,0.80
2023-06-29T10:57:44.567Z,1.10
2023-06-29T11:03:56.359Z,1.10
2023-06-29T11:07:01.414Z,1.10
2023-06-29T11:10:17.536Z,1.25
2023-06-29T11:13:25.811Z,1.10
2023-06-29T11:16:32.477Z,2.67
2023-06-29T11:19:46.806Z,1.07
2023-06-29T11:22:53.115Z,1.00
2023-06-29T11:26:00.667Z,1.20
2023-06-29T11:29:08.993Z,0.90
2023-06-29T11:32:19.085Z,1.10
2023-06-29T11:35:30.658Z,1.05
2023-06-29T11:38:37.419Z,1.12
2023-06-29T11:41:46.121Z,0.85
2023-06-29T11:44:52.516Z,1.00
2023-06-29T11:47:59.962Z,2.08
2023-06-29T11:51:07.318Z,1.02
2023-06-29T11:54:15.070Z,1.55
2023-06-29T11:57:22.779Z,1.47
2023-06-29T12:00:33.339Z,2.10
2023-06-29T12:03:39.539Z,2.35
2023-06-29T12:06:46.458Z,2.08
2023-06-29T12:09:53.928Z,1.80
2023-06-29T12:13:07.461Z,2.00
2023-06-29T12:19:29.903Z,1.90
2023-06-29T12:22:38.329Z,1.83
2023-06-29T12:25:46.968Z,1.90
2023-06-29T12:28:54.367Z,1.82
2023-06-29T12:32:02.696Z,1.77
2023-06-29T12:35:09.932Z,1.70
2023-06-29T12:38:14.663Z,1.80
2023-06-29T12:41:21.369Z,2.95
2023-06-29T12:44:28.303Z,2.42
2023-06-29T12:47:34.831Z,1.90
2023-06-29T12:50:40.820Z,2.30
2023-06-29T12:53:46.883Z,2.15
2023-06-29T12:56:55.533Z,2.08
2023-06-29T13:00:02.578Z,1.95
2023-06-29T13:03:10.953Z,1.50
2023-06-29T13:06:17.094Z,1.85
2023-06-29T13:09:23.232Z,4.90
2023-06-29T13:12:30.124Z,1.72
2023-06-29T13:15:36.017Z,2.00
2023-06-29T13:18:43.822Z,2.77
2023-06-29T13:21:51.079Z,3.17
2023-06-29T13:24:56.525Z,4.87
2023-06-29T13:28:03.466Z,5.95
2023-06-29T13:31:09.370Z,2.20
2023-06-29T13:34:16.101Z,1.70
2023-06-29T13:37:22.717Z,1.82
2023-06-29T13:40:29.376Z,1.70
2023-06-29T13:43:35.891Z,2.00
2023-06-29T13:46:45.155Z,1.75
2023-06-29T13:49:52.108Z,1.82
2023-06-29T13:52:59.374Z,1.70
2023-06-29T13:56:05.497Z,2.08
2023-06-29T13:59:16.691Z,2.02
2023-06-29T14:02:21.693Z,2.12
2023-06-29T14:05:27.861Z,1.82
2023-06-29T14:08:33.262Z,1.98
2023-06-29T14:11:40.372Z,4.97
2023-06-29T14:14:51.014Z,1.92
2023-06-29T14:17:57.311Z,2.20
2023-06-29T14:21:05.017Z,2.92
2023-06-29T14:24:11.376Z,2.25
2023-06-29T14:27:17.529Z,2.40
2023-06-29T14:30:26.202Z,2.17
2023-06-29T14:33:32.650Z,1.75
2023-06-29T14:36:37.915Z,1.80
2023-06-29T14:39:44.303Z,1.57
2023-06-29T14:42:51.701Z,2.45
2023-06-29T14:45:56.013Z,2.85
2023-06-29T14:49:02.828Z,2.77
2023-06-29T14:52:09.189Z,2.70
2023-06-29T14:55:15.561Z,3.10
2023-06-29T14:58:21.697Z,2.62
2023-06-29T15:01:28.888Z,2.40
2023-06-29T15:04:34.727Z,2.50
2023-06-29T15:07:40.797Z,2.45
2023-06-29T15:10:46.382Z,2.40
2023-06-29T15:13:54.822Z,2.30
2023-06-29T15:17:01.636Z,2.65
2023-06-29T15:20:08.433Z,3.17
2023-06-29T15:23:14.450Z,3.08
2023-06-29T15:26:18.735Z,3.22
2023-06-29T15:29:18.611Z,2.72
2023-06-29T15:32:06.302Z,3.47
2023-06-29T15:34:59.158Z,3.35
2023-06-29T15:37:47.421Z,2.98
2023-06-29T15:40:39.801Z,2.37
2023-06-29T15:43:28.582Z,2.10
2023-06-29T15:46:22.193Z,2.60
2023-06-29T15:49:14.804Z,2.10
2023-06-29T15:52:21.396Z,1.75
2023-06-29T15:55:26.971Z,1.90
2023-06-29T15:58:35.303Z,1.77
2023-06-29T16:01:41.843Z,1.67
2023-06-29T16:04:50.150Z,1.85
2023-06-29T16:08:01.232Z,1.90
2023-06-29T16:11:06.554Z,2.30
2023-06-29T16:14:12.795Z,3.10
2023-06-29T16:17:18.790Z,2.40
2023-06-29T16:20:26.026Z,2.10
2023-06-29T16:23:33.133Z,2.17
2023-06-29T16:26:39.046Z,2.30
2023-06-29T16:29:44.685Z,1.92
2023-06-29T16:32:51.942Z,2.25
2023-06-29T16:36:00.188Z,2.00
2023-06-29T16:39:05.215Z,2.05
2023-06-29T16:42:12.037Z,2.05
2023-06-29T16:45:18.282Z,2.12
2023-06-29T16:48:23.821Z,2.05
2023-06-29T16:51:28.767Z,1.92
2023-06-29T16:54:36.062Z,2.02
2023-06-29T16:57:41.858Z,1.75
2023-06-29T17:00:48.432Z,2.22
2023-06-29T17:03:56.580Z,2.00
2023-06-29T17:07:02.622Z,2.60
2023-06-29T17:10:09.048Z,2.10
2023-06-29T17:13:14.970Z,2.37
2023-06-29T17:16:21.740Z,2.08
2023-06-29T17:19:27.449Z,2.30
2023-06-29T17:22:33.442Z,2.87
2023-06-29T17:25:39.578Z,2.80
2023-06-29T17:28:46.291Z,3.33
2023-06-29T17:31:52.545Z,4.35
2023-06-29T17:34:57.664Z,5.08
2023-06-29T17:37:57.335Z,6.97
2023-06-29T17:40:50.945Z,5.78
2023-06-29T17:43:59.072Z,3.62
2023-06-29T17:47:05.217Z,3.58
2023-06-29T17:50:11.407Z,4.65
2023-06-29T17:53:18.942Z,4.80
2023-06-29T17:56:26.520Z,4.22
2023-06-29T17:59:33.362Z,5.45
2023-06-29T18:02:40.420Z,5.45
2023-06-29T18:05:47.175Z,5.90
2023-06-29T18:08:53.267Z,4.62
2023-06-29T18:12:04.177Z,3.30
2023-06-29T18:15:09.585Z,3.30
2023-06-29T18:18:17.316Z,2.60
2023-06-29T18:21:25.249Z,3.10
2023-06-29T18:24:31.903Z,3.20
2023-06-29T18:27:38.040Z,3.17
2023-06-29T18:30:43.962Z,3.70
2023-06-29T18:33:50.999Z,4.40
2023-06-29T18:36:56.880Z,4.10
2023-06-29T18:40:03.418Z,3.95
2023-06-29T18:43:08.542Z,3.55
2023-06-29T18:46:15.791Z,3.42
2023-06-29T18:49:21.966Z,3.55
2023-06-29T18:52:31.074Z,2.83
2023-06-29T18:55:39.973Z,2.65
2023-06-29T18:58:47.031Z,2.37
2023-06-29T19:01:54.155Z,2.80
2023-06-29T19:05:00.816Z,2.20
2023-06-29T19:08:07.350Z,2.45
2023-06-29T19:11:15.088Z,2.37
2023-06-29T19:14:23.206Z,2.83
2023-06-29T19:17:28.030Z,2.12
2023-06-29T19:20:34.865Z,2.30
2023-06-29T19:23:40.844Z,2.25
2023-06-29T19:26:49.091Z,2.30
2023-06-29T19:29:55.747Z,2.60
2023-06-29T19:33:03.103Z,3.30
2023-06-29T19:36:10.954Z,3.02
2023-06-29T19:39:17.507Z,2.50
2023-06-29T19:42:24.711Z,2.72
2023-06-29T19:45:31.804Z,3.00
2023-06-29T19:48:39.805Z,2.65
2023-06-29T19:51:46.868Z,3.10
2023-06-29T19:54:54.309Z,3.17
2023-06-29T19:58:00.135Z,3.55
2023-06-29T20:01:06.282Z,3.70
2023-06-29T20:04:12.445Z,3.70
2023-06-29T20:07:19.303Z,3.52
2023-06-29T20:10:25.708Z,4.22
2023-06-29T20:13:30.864Z,3.65
2023-06-29T20:16:36.211Z,3.75
2023-06-29T20:19:42.625Z,3.67
2023-06-29T20:22:49.557Z,3.70
2023-06-29T20:25:57.460Z,3.15
2023-06-29T20:29:03.509Z,3.52
2023-06-29T20:32:10.958Z,3.85
2023-06-29T20:35:17.889Z,4.05
2023-06-29T20:38:23.727Z,3.58
2023-06-29T20:41:30.515Z,3.98
2023-06-29T20:44:38.222Z,4.08
2023-06-29T20:47:44.579Z,3.90
2023-06-29T20:50:53.493Z,3.80
2023-06-29T20:53:59.520Z,3.85
2023-06-29T20:57:06.027Z,3.90
2023-06-29T21:00:11.863Z,3.95
2023-06-29T21:03:19.939Z,4.37
2023-06-29T21:06:26.144Z,4.55
2023-06-29T21:09:33.329Z,4.35
2023-06-29T21:12:41.361Z,4.35
2023-06-29T21:15:47.308Z,4.72
2023-06-29T21:18:55.743Z,4.60
2023-06-29T21:22:01.661Z,4.70
2023-06-29T21:25:08.851Z,4.25
2023-06-29T21:28:15.248Z,4.67
2023-06-29T21:31:21.039Z,4.85
2023-06-29T21:34:28.149Z,5.25
2023-06-29T21:37:33.942Z,5.37
2023-06-29T21:40:40.094Z,5.20
2023-06-29T21:43:47.175Z,5.35
2023-06-29T21:46:54.626Z,5.20
2023-06-29T21:50:01.168Z,5.37
2023-06-29T21:53:07.121Z,5.35
2023-06-29T21:56:25.080Z,5.15
2023-06-29T21:59:20.782Z,5.22
2023-06-29T22:02:27.405Z,5.97
2023-06-29T22:05:33.500Z,6.50
2023-06-29T22:08:39.789Z,5.87
2023-06-29T22:11:47.370Z,5.53
2023-06-29T22:14:55.095Z,6.45
2023-06-29T22:18:04.879Z,5.62
2023-06-29T22:21:12.461Z,5.62
2023-06-29T22:24:19.171Z,5.58
2023-06-29T22:27:26.185Z,5.85
2023-06-29T22:30:33.195Z,5.35
2023-06-29T22:33:39.196Z,6.03
2023-06-29T22:36:45.378Z,5.78
2023-06-29T22:39:51.546Z,6.25
2023-06-29T22:42:56.701Z,5.33
2023-06-29T22:46:03.085Z,5.65
2023-06-29T22:49:09.541Z,6.08
2023-06-29T22:52:16.102Z,5.50
2023-06-29T22:55:23.810Z,5.33
2023-06-29T22:58:36.749Z,5.95
2023-06-29T23:01:43.611Z,6.05
2023-06-29T23:04:51.468Z,5.75
2023-06-29T23:07:59.829Z,5.92
2023-06-29T23:11:06.180Z,5.67
2023-06-29T23:14:19.287Z,5.70
2023-06-29T23:17:26.427Z,5.85
2023-06-29T23:20:34.313Z,6.40
2023-06-29T23:23:40.455Z,6.00
2023-06-29T23:26:47.291Z,5.87
2023-06-29T23:29:53.610Z,5.42
2023-06-29T23:33:00.466Z,5.37
2023-06-29T23:36:05.531Z,4.95
2023-06-29T23:39:13.939Z,5.03
2023-06-29T23:42:22.285Z,4.97
2023-06-29T23:45:29.561Z,5.20
2023-06-29T23:48:38.640Z,5.08
2023-06-29T23:51:38.801Z,5.10
2023-06-29T23:54:26.265Z,5.70
2023-06-29T23:57:20.451Z,5.25
